Search for airport 
image banner adimage banner adimage banner ad
image banner ad

0PA8 - Community Medical Center Nap

Located in Scranton, United States

ICAO - 0PA8, IATA -

Data provided by Airmate  

General information

Coordinates: N41°24'0" W75°38'47"
Elevation is 1061 feet MSL.
Magnetic variation is -13° East
View others Airports in Pennsylvania

Operational data

Special qualification required
Current time UTC:
Current local time:
Weather at : KAVP - Wilkes-Barre/Scranton Intl ( 9 km )
METAR: KAVP 152254Z 33010KT 10SM OVC060 21/12 A2982 RMK AO2 SLP093 T02060122
TAF: KAVP 151744Z 1518/1618 31010G18KT P6SM -SHRA SCT028 BKN040 TEMPO 1518/1520 3SM -RA SCT025 BKN030 FM152200 33009KT P6SM SCT040 BKN070 FM160100 33006KT P6SM SCT250 FM161600 33012KT P6SM FEW250
View NOTAMs / SUP AIP / TFR affecting this airport [VIEW]
Communications frequencies: [VIEW]

Runways:

Airport contact information

Address: Scranton United States

Satellite view of 0PA8